createdAt,value
2022-10-03T00:00:39.229Z,11.43000031
2022-10-03T00:01:34.244Z,11.39999962
2022-10-03T00:03:38.733Z,11.39000034
2022-10-03T00:04:37.985Z,11.35999966
2022-10-03T00:05:35.284Z,11.35999966
2022-10-03T00:06:37.957Z,11.35000038
2022-10-03T00:07:34.365Z,11.35999966
2022-10-03T00:08:36.528Z,11.35999966
2022-10-03T00:09:32.017Z,11.34000015
2022-10-03T00:10:31.519Z,11.35000038
2022-10-03T00:11:29.926Z,11.32999992
2022-10-03T00:12:29.844Z,11.35000038
2022-10-03T00:14:31.970Z,11.31000042
2022-10-03T00:15:27.744Z,11.31000042
2022-10-03T00:16:28.178Z,11.31000042
2022-10-03T00:17:25.857Z,11.32999992
2022-10-03T00:19:02.475Z,11.46000004
2022-10-03T00:21:37.323Z,11.88000011
2022-10-03T00:22:12.012Z,11.85999966
2022-10-03T00:23:11.079Z,11.85999966
2022-10-03T00:24:09.394Z,11.81999969
2022-10-03T00:25:07.866Z,11.73999977
2022-10-03T00:26:08.883Z,11.68999958
2022-10-03T00:27:06.448Z,11.60999966
2022-10-03T00:29:04.732Z,11.5
2022-10-03T00:30:06.934Z,11.43999958
2022-10-03T00:31:05.007Z,11.43999958
2022-10-03T00:32:05.491Z,11.38000011
2022-10-03T00:33:04.740Z,11.35999966
2022-10-03T00:34:09.059Z,11.32999992
2022-10-03T00:35:07.126Z,11.32999992
2022-10-03T00:36:13.525Z,11.30000019
2022-10-03T00:37:12.506Z,11.28999996
2022-10-03T00:39:09.149Z,11.26000023
2022-10-03T00:40:10.692Z,11.22999954
2022-10-03T00:41:11.866Z,11.22999954
2022-10-03T00:42:15.277Z,11.22000027
2022-10-03T00:43:08.598Z,11.22999954
2022-10-03T00:44:14.319Z,11.22999954
2022-10-03T00:45:16.196Z,11.25
2022-10-03T00:46:14.017Z,11.28999996
2022-10-03T00:47:16.678Z,11.27999973
2022-10-03T00:49:13.603Z,11.25
2022-10-03T00:50:11.571Z,11.23999977
2022-10-03T00:51:11.664Z,11.22999954
2022-10-03T00:52:07.453Z,11.19999981
2022-10-03T00:54:22.795Z,11.19999981
2022-10-03T00:55:24.843Z,11.18999958
2022-10-03T00:56:20.785Z,11.15999985
2022-10-03T00:57:29.639Z,11.14999962
2022-10-03T00:59:24.225Z,11.14999962
2022-10-03T01:00:24.148Z,11.19999981
2022-10-03T01:01:22.450Z,11.19999981
2022-10-03T01:03:07.917Z,11.27000046
2022-10-03T01:03:48.984Z,11.28999996
2022-10-03T01:04:49.377Z,11.28999996
2022-10-03T01:05:46.401Z,11.26000023
2022-10-03T01:06:45.191Z,11.21000004
2022-10-03T01:08:45.017Z,11.14999962
2022-10-03T01:09:42.445Z,11.14000034
2022-10-03T01:10:38.211Z,11.11999989
2022-10-03T01:11:40.055Z,11.09000015
2022-10-03T01:13:41.357Z,11.13000011
2022-10-03T01:14:40.568Z,11.10000038
2022-10-03T01:15:38.403Z,11.09000015
2022-10-03T01:16:41.011Z,11.06999969
2022-10-03T01:18:37.323Z,11.14000034
2022-10-03T01:19:32.595Z,11.11999989
2022-10-03T01:20:35.134Z,11.10999966
2022-10-03T01:21:27.462Z,11.13000011
2022-10-03T01:22:29.267Z,11.13000011
2022-10-03T01:24:30.547Z,11.14000034
2022-10-03T01:25:22.515Z,11.14999962
2022-10-03T01:26:25.161Z,11.13000011
2022-10-03T01:27:18.328Z,11.13000011
2022-10-03T01:29:15.244Z,11.17000008
2022-10-03T01:30:19.491Z,11.23999977
2022-10-03T01:31:15.904Z,11.27999973
2022-10-03T01:32:14.675Z,11.27999973
2022-10-03T01:34:14.971Z,11.27000046
2022-10-03T01:35:14.296Z,11.26000023
2022-10-03T01:36:18.828Z,11.27000046
2022-10-03T01:37:11.211Z,11.27999973
2022-10-03T01:40:34.422Z,11.47999954
2022-10-03T01:41:18.334Z,11.5
2022-10-03T01:42:17.268Z,11.51000023
2022-10-03T01:44:19.242Z,11.48999977
2022-10-03T01:45:21.649Z,11.43000031
2022-10-03T01:46:23.986Z,11.38000011
2022-10-03T01:47:24.267Z,11.34000015
2022-10-03T01:48:24.777Z,11.31999969
2022-10-03T01:49:21.011Z,11.28999996
2022-10-03T01:50:22.119Z,11.23999977
2022-10-03T01:51:21.265Z,11.22000027
2022-10-03T01:52:22.324Z,11.23999977
2022-10-03T01:54:22.498Z,11.25
2022-10-03T01:55:21.080Z,11.26000023
2022-10-03T01:56:23.219Z,11.22000027
2022-10-03T01:57:19.869Z,11.19999981
2022-10-03T01:58:25.683Z,11.18000031
2022-10-03T01:59:27.492Z,11.15999985
2022-10-03T02:00:26.001Z,11.14999962
2022-10-03T02:01:27.338Z,11.14000034
2022-10-03T02:02:28.658Z,11.14000034
2022-10-03T02:04:22.883Z,11.17000008
2022-10-03T02:05:19.563Z,11.15999985
2022-10-03T02:06:24.635Z,11.14000034
2022-10-03T02:07:21.412Z,11.14000034
2022-10-03T02:08:22.168Z,11.10000038
2022-10-03T02:09:22.202Z,11.07999992
2022-10-03T02:10:24.772Z,11.03999996
2022-10-03T02:11:21.826Z,11.05000019
2022-10-03T02:12:26.059Z,11.03999996
2022-10-03T02:13:20.282Z,11.05000019
2022-10-03T02:14:34.041Z,11.06000042
2022-10-03T02:15:33.041Z,11.09000015
2022-10-03T02:16:33.368Z,11.07999992
2022-10-03T02:17:31.575Z,11.07999992
2022-10-03T02:19:32.293Z,11.06000042
2022-10-03T02:20:35.408Z,11.03999996
2022-10-03T02:21:30.483Z,11.03999996
2022-10-03T02:22:08.500Z,11.02999973
2022-10-03T02:23:09.366Z,11.07999992
2022-10-03T02:24:12.491Z,11.06999969
2022-10-03T02:25:13.240Z,11.02999973
2022-10-03T02:27:01.715Z,11.03999996
2022-10-03T02:27:44.014Z,11.11999989
2022-10-03T02:28:44.955Z,11.14000034
2022-10-03T02:29:47.017Z,11.14999962
2022-10-03T02:30:45.298Z,11.14000034
2022-10-03T02:31:53.099Z,11.13000011
2022-10-03T02:32:50.036Z,11.11999989
2022-10-03T02:33:53.253Z,11.09000015
2022-10-03T02:34:53.768Z,11.02999973
2022-10-03T02:35:53.185Z,11.02000046
2022-10-03T02:36:58.324Z,10.98999977
2022-10-03T02:39:01.277Z,11.01000023
2022-10-03T02:40:02.568Z,10.98999977
2022-10-03T02:41:03.806Z,10.98999977
2022-10-03T02:42:03.190Z,10.98999977
2022-10-03T02:43:08.348Z,11.02999973
2022-10-03T02:44:03.192Z,11.02000046
2022-10-03T02:45:08.855Z,11.03999996
2022-10-03T02:46:08.726Z,11.01000023
2022-10-03T02:47:05.659Z,11.01000023
2022-10-03T02:49:12.450Z,11.03999996
2022-10-03T02:50:09.233Z,11.07999992
2022-10-03T02:51:12.967Z,11.09000015
2022-10-03T02:52:13.722Z,11.06000042
2022-10-03T02:54:15.825Z,11.02000046
2022-10-03T02:55:15.905Z,11
2022-10-03T02:56:20.098Z,11
2022-10-03T02:57:17.145Z,11.01000023
2022-10-03T02:58:19.494Z,11
2022-10-03T02:59:20.095Z,10.97999954
2022-10-03T03:00:19.133Z,10.94999981
2022-10-03T03:01:25.349Z,10.92000008
2022-10-03T03:02:32.362Z,10.89999962
2022-10-03T03:05:22.203Z,10.92000008
2022-10-03T03:05:43.442Z,10.97000027
2022-10-03T03:06:42.418Z,11.07999992
2022-10-03T03:07:45.914Z,11.14000034
2022-10-03T03:08:42.999Z,11.11999989
2022-10-03T03:09:44.810Z,11.07999992
2022-10-03T03:10:40.149Z,11.06000042
2022-10-03T03:11:41.778Z,11.03999996
2022-10-03T03:12:41.214Z,11.06000042
2022-10-03T03:13:40.191Z,11.06000042
2022-10-03T03:14:40.243Z,11.02999973
2022-10-03T03:15:42.494Z,11.01000023
2022-10-03T03:16:34.891Z,10.96000004
2022-10-03T03:17:34.358Z,10.93999958
2022-10-03T03:19:28.856Z,10.89999962
2022-10-03T03:20:24.059Z,10.88000011
2022-10-03T03:21:32.563Z,10.84000015
2022-10-03T03:22:35.253Z,10.84000015
2022-10-03T03:23:34.905Z,10.84000015
2022-10-03T03:24:30.701Z,10.84000015
2022-10-03T03:25:30.896Z,10.84000015
2022-10-03T03:26:28.840Z,10.80000019
2022-10-03T03:27:31.666Z,10.80000019
2022-10-03T03:29:39.307Z,10.78999996
2022-10-03T03:30:36.278Z,10.77000046
2022-10-03T03:31:36.261Z,10.73999977
2022-10-03T03:33:36.454Z,10.73999977
2022-10-03T03:34:35.444Z,10.76000023
2022-10-03T03:35:35.270Z,10.72999954
2022-10-03T03:36:33.467Z,10.76000023
2022-10-03T03:37:33.782Z,10.77999973
2022-10-03T03:38:28.384Z,10.76000023
2022-10-03T03:40:03.568Z,10.85999966
2022-10-03T03:42:24.887Z,11.30000019
2022-10-03T03:44:09.072Z,11.31999969
2022-10-03T03:45:09.911Z,11.25
2022-10-03T03:46:05.434Z,11.21000004
2022-10-03T03:47:04.626Z,11.14999962
2022-10-03T03:49:02.477Z,11.01000023
2022-10-03T03:49:56.580Z,10.97000027
2022-10-03T03:50:57.980Z,10.96000004
2022-10-03T03:51:56.237Z,10.89999962
2022-10-03T03:53:52.127Z,10.88000011
2022-10-03T03:54:55.930Z,10.84000015
2022-10-03T03:55:55.959Z,10.81000042
2022-10-03T03:56:59.581Z,10.78999996
2022-10-03T03:58:57.065Z,10.72999954
2022-10-03T03:59:48.676Z,10.71000004
2022-10-03T04:00:50.458Z,10.69999981
2022-10-03T04:01:41.958Z,10.68999958
2022-10-03T04:03:39.375Z,10.69999981
2022-10-03T04:04:39.134Z,10.68000031
2022-10-03T04:05:34.702Z,10.67000008
2022-10-03T04:06:33.495Z,10.64999962
2022-10-03T04:07:29.365Z,10.64999962
2022-10-03T04:09:23.233Z,10.63000011
2022-10-03T04:10:26.138Z,10.63000011
2022-10-03T04:11:17.682Z,10.61999989
2022-10-03T04:12:14.218Z,10.63000011
2022-10-03T04:14:08.517Z,10.60999966
2022-10-03T04:15:09.835Z,10.60000038
2022-10-03T04:16:06.926Z,10.59000015
2022-10-03T04:17:03.643Z,10.61999989
2022-10-03T04:19:01.841Z,10.64000034
2022-10-03T04:20:04.725Z,10.63000011
2022-10-03T04:21:01.810Z,10.64000034
2022-10-03T04:22:06.271Z,10.61999989
2022-10-03T04:22:59.499Z,10.61999989
2022-10-03T04:24:00.651Z,10.61999989
2022-10-03T04:24:52.233Z,10.63000011
2022-10-03T04:25:54.297Z,10.64999962
2022-10-03T04:27:31.609Z,10.81999969
2022-10-03T04:28:32.979Z,11.13000011
2022-10-03T04:29:28.436Z,11.35999966
2022-10-03T04:30:29.988Z,11.42000008
2022-10-03T04:31:29.831Z,11.38000011
2022-10-03T04:33:34.918Z,11.40999985
2022-10-03T04:34:15.088Z,11.43000031
2022-10-03T04:35:20.814Z,11.39000034
2022-10-03T04:36:15.135Z,11.31999969
2022-10-03T04:37:16.280Z,11.25
2022-10-03T04:39:06.983Z,11.14999962
2022-10-03T04:40:08.090Z,11.10000038
2022-10-03T04:41:06.030Z,11.03999996
2022-10-03T04:42:03.792Z,11
2022-10-03T04:43:58.342Z,10.94999981
2022-10-03T04:44:53.948Z,10.93999958
2022-10-03T04:45:54.602Z,10.90999985
2022-10-03T04:46:48.845Z,10.88000011
2022-10-03T04:48:43.154Z,10.88000011
2022-10-03T04:49:43.460Z,10.85999966
2022-10-03T04:50:39.780Z,10.84000015
2022-10-03T04:51:39.518Z,10.81999969
2022-10-03T04:52:33.903Z,10.82999992
2022-10-03T04:54:26.693Z,10.84000015
2022-10-03T04:55:26.536Z,10.81999969
2022-10-03T04:56:22.000Z,10.80000019
2022-10-03T04:57:23.386Z,10.81000042
2022-10-03T04:59:21.291Z,10.82999992
2022-10-03T05:00:14.708Z,10.82999992
2022-10-03T05:01:16.033Z,10.85000038
2022-10-03T05:02:13.409Z,10.82999992
2022-10-03T05:04:12.543Z,10.85999966
2022-10-03T05:05:39.713Z,10.82999992
2022-10-03T05:06:17.564Z,10.85000038
2022-10-03T05:07:17.641Z,10.88000011
2022-10-03T05:09:15.990Z,10.89999962
2022-10-03T05:10:20.070Z,10.85999966
2022-10-03T05:11:18.473Z,10.84000015
2022-10-03T05:12:18.915Z,10.81000042
2022-10-03T05:13:20.767Z,10.81999969
2022-10-03T05:14:21.171Z,10.81999969
2022-10-03T05:15:19.751Z,10.82999992
2022-10-03T05:16:15.320Z,10.82999992
2022-10-03T05:17:19.309Z,10.80000019
2022-10-03T05:19:27.391Z,10.80000019
2022-10-03T05:20:25.226Z,10.78999996
2022-10-03T05:21:28.258Z,10.80000019
2022-10-03T05:22:24.176Z,10.81000042
2022-10-03T05:24:20.339Z,10.77999973
2022-10-03T05:25:20.331Z,10.77999973
2022-10-03T05:26:43.677Z,10.80000019
2022-10-03T05:26:44.141Z,10.80000019
2022-10-03T05:26:45.746Z,10.80000019
2022-10-03T05:27:15.887Z,10.81999969
2022-10-03T05:28:15.919Z,10.86999989
2022-10-03T05:29:14.221Z,10.88000011
2022-10-03T05:30:20.745Z,10.85999966
2022-10-03T05:31:16.792Z,10.82999992
2022-10-03T05:32:22.393Z,10.81000042
2022-10-03T05:34:19.442Z,10.80000019
2022-10-03T05:35:20.319Z,10.77000046
2022-10-03T05:36:15.542Z,10.77000046
2022-10-03T05:37:15.650Z,10.78999996
2022-10-03T05:39:16.818Z,10.77999973
2022-10-03T05:40:11.763Z,10.77000046
2022-10-03T05:41:11.967Z,10.77999973
2022-10-03T05:42:22.717Z,10.77000046
2022-10-03T05:42:23.037Z,10.77000046
2022-10-03T05:42:23.461Z,10.77000046
2022-10-03T05:44:59.317Z,10.97999954
2022-10-03T05:45:54.779Z,10.97999954
2022-10-03T05:46:57.752Z,10.98999977
2022-10-03T05:49:28.054Z,11.02999973
2022-10-03T05:51:52.341Z,11.26000023
2022-10-03T05:52:31.454Z,11.27000046
2022-10-03T05:54:28.019Z,11.27000046
2022-10-03T05:55:27.611Z,11.22999954
2022-10-03T05:56:23.983Z,11.19999981
2022-10-03T05:57:23.154Z,11.14999962
2022-10-03T05:59:17.962Z,11.10999966
2022-10-03T06:00:17.868Z,11.07999992
2022-10-03T06:01:16.888Z,11.03999996
2022-10-03T06:02:19.946Z,11
2022-10-03T06:03:17.391Z,10.98999977
2022-10-03T06:04:19.361Z,11
2022-10-03T06:05:15.443Z,11
2022-10-03T06:06:14.540Z,10.98999977
2022-10-03T06:07:09.890Z,10.96000004
2022-10-03T06:08:08.907Z,10.93000031
2022-10-03T06:09:07.031Z,10.93000031
2022-10-03T06:10:11.059Z,10.94999981
2022-10-03T06:11:10.242Z,10.97999954
2022-10-03T06:12:04.674Z,10.96000004
2022-10-03T06:13:08.711Z,10.96000004
2022-10-03T06:14:02.998Z,10.96000004
2022-10-03T06:15:03.067Z,10.96000004
2022-10-03T06:15:58.577Z,10.96000004
2022-10-03T06:16:57.927Z,10.93999958
2022-10-03T06:18:54.756Z,10.93000031
2022-10-03T06:19:49.106Z,10.96000004
2022-10-03T06:20:50.513Z,10.96000004
2022-10-03T06:21:43.808Z,10.93999958
2022-10-03T06:23:44.993Z,10.98999977
2022-10-03T06:24:40.119Z,11.06000042
2022-10-03T06:26:28.322Z,11.15999985
2022-10-03T06:27:09.909Z,11.18000031
2022-10-03T06:29:09.921Z,11.17000008
2022-10-03T06:30:06.391Z,11.14000034
2022-10-03T06:31:07.348Z,11.10000038
2022-10-03T06:32:03.573Z,11.06000042
2022-10-03T06:34:00.969Z,11.03999996
2022-10-03T06:35:01.858Z,11.02999973
2022-10-03T06:35:59.562Z,11.01000023
2022-10-03T06:37:01.225Z,10.97999954
2022-10-03T06:38:59.392Z,10.94999981
2022-10-03T06:41:53.455Z,11.28999996
2022-10-03T06:42:30.483Z,11.47000027
2022-10-03T06:44:26.905Z,11.51000023
2022-10-03T06:45:30.837Z,11.47000027
2022-10-03T06:46:21.828Z,11.44999981
2022-10-03T06:47:21.135Z,11.39999962
2022-10-03T06:49:14.912Z,11.32999992
2022-10-03T06:50:09.024Z,11.28999996
2022-10-03T06:51:08.351Z,11.28999996
2022-10-03T06:52:02.714Z,11.27999973
2022-10-03T06:53:55.792Z,11.25
2022-10-03T06:54:54.633Z,11.22999954
2022-10-03T06:55:48.767Z,11.21000004
2022-10-03T06:56:49.622Z,11.19999981
2022-10-03T06:57:44.064Z,11.19999981
2022-10-03T06:58:38.068Z,11.21000004
2022-10-03T06:59:36.890Z,11.22999954
2022-10-03T07:00:31.484Z,11.22999954
2022-10-03T07:01:32.808Z,11.22000027
2022-10-03T07:02:25.597Z,11.22000027
2022-10-03T07:04:21.565Z,11.18000031
2022-10-03T07:05:15.529Z,11.19999981
2022-10-03T07:06:16.875Z,11.21000004
2022-10-03T07:07:08.535Z,11.21000004
2022-10-03T07:08:05.384Z,11.22000027
2022-10-03T07:09:03.777Z,11.22000027
2022-10-03T07:09:59.374Z,11.22000027
2022-10-03T07:11:02.075Z,11.22999954
2022-10-03T07:11:53.868Z,11.22999954
2022-10-03T07:13:47.187Z,11.25
2022-10-03T07:14:43.573Z,11.26000023
2022-10-03T07:16:06.256Z,11.27999973
2022-10-03T07:16:21.038Z,11.27999973
2022-10-03T07:17:48.074Z,11.38000011
2022-10-03T07:19:25.842Z,11.51000023
2022-10-03T07:20:27.304Z,11.51000023
2022-10-03T07:21:23.681Z,11.5
2022-10-03T07:22:25.190Z,11.48999977
2022-10-03T07:24:23.618Z,11.46000004
2022-10-03T07:25:19.988Z,11.47999954
2022-10-03T07:26:21.155Z,11.47000027
2022-10-03T07:27:17.558Z,11.44999981
2022-10-03T07:29:16.295Z,11.46000004
2022-10-03T07:30:17.130Z,11.47999954
2022-10-03T07:31:13.489Z,11.5
2022-10-03T07:32:15.163Z,11.51000023
2022-10-03T07:34:13.313Z,11.55000019
2022-10-03T07:35:09.778Z,11.56999969
2022-10-03T07:36:11.085Z,11.56999969
2022-10-03T07:37:07.704Z,11.57999992
2022-10-03T07:39:11.584Z,11.60000038
2022-10-03T07:40:05.609Z,11.60999966
2022-10-03T07:41:09.638Z,11.61999989
2022-10-03T07:42:04.279Z,11.64999962
2022-10-03T07:43:08.299Z,11.67000008
2022-10-03T07:44:03.604Z,11.69999981
2022-10-03T07:45:05.614Z,11.71000004
2022-10-03T07:46:02.231Z,11.72999954
2022-10-03T07:47:03.500Z,11.72999954
2022-10-03T07:49:04.105Z,11.75
2022-10-03T07:49:59.239Z,11.77999973
2022-10-03T07:51:00.637Z,11.77999973
2022-10-03T07:51:58.161Z,11.78999996
2022-10-03T07:53:56.605Z,11.84000015
2022-10-03T07:55:01.098Z,11.85000038
2022-10-03T07:55:55.389Z,11.84000015
2022-10-03T07:56:59.655Z,11.85999966
2022-10-03T07:57:54.020Z,11.90999985
2022-10-03T07:58:58.247Z,11.93999958
2022-10-03T07:59:53.398Z,11.96000004
2022-10-03T08:00:57.018Z,11.97999954
2022-10-03T08:01:52.411Z,11.97999954
2022-10-03T08:04:58.099Z,12.27000046
2022-10-03T08:09:15.917Z,12.84000015
2022-10-03T08:10:12.151Z,12.90999985
2022-10-03T08:11:11.715Z,12.88000011
2022-10-03T08:12:07.824Z,12.84000015
2022-10-03T08:13:07.010Z,12.77000046
2022-10-03T08:14:02.162Z,12.72999954
2022-10-03T08:15:02.404Z,12.71000004
2022-10-03T08:15:58.575Z,12.68999958
2022-10-03T08:16:56.921Z,12.68999958
2022-10-03T08:17:54.923Z,12.67000008
2022-10-03T08:18:50.068Z,12.68000031
2022-10-03T08:19:50.213Z,12.68999958
2022-10-03T08:20:46.270Z,12.71000004
2022-10-03T08:21:45.123Z,12.73999977
2022-10-03T08:23:40.278Z,12.81000042
2022-10-03T08:24:42.755Z,12.85000038
2022-10-03T08:25:35.804Z,12.89999962
2022-10-03T08:26:38.879Z,12.93000031
2022-10-03T08:27:32.307Z,12.93999958
2022-10-03T08:28:35.642Z,12.97000027
2022-10-03T08:29:30.079Z,13.02999973
2022-10-03T08:30:30.126Z,13.07999992
2022-10-03T08:31:26.521Z,13.14999962
2022-10-03T08:32:25.494Z,13.17000008
2022-10-03T08:34:23.348Z,13.27999973
2022-10-03T08:35:27.197Z,13.34000015
2022-10-03T08:36:21.659Z,13.43000031
2022-10-03T08:37:00.099Z,13.46000004
2022-10-03T08:37:59.384Z,13.48999977
2022-10-03T08:38:58.534Z,13.57999992
2022-10-03T08:39:57.837Z,13.63000011
2022-10-03T08:40:59.898Z,13.69999981
2022-10-03T08:42:01.998Z,13.77000046
2022-10-03T08:42:58.843Z,13.81999969
2022-10-03T08:43:56.112Z,13.89000034
2022-10-03T08:45:00.709Z,13.97999954
2022-10-03T08:45:55.419Z,14.02999973
2022-10-03T08:46:57.591Z,14.10999966
2022-10-03T08:48:57.198Z,14.17000008
2022-10-03T08:50:28.110Z,14.26000023
2022-10-03T08:51:08.955Z,14.34000015
2022-10-03T08:52:08.146Z,14.39000034
2022-10-03T08:53:09.760Z,14.38000011
2022-10-03T08:54:06.549Z,14.43999958
2022-10-03T08:55:08.139Z,14.47000027
2022-10-03T08:56:06.152Z,14.52000046
2022-10-03T08:57:04.063Z,14.56999969
2022-10-03T08:58:05.419Z,14.53999996
2022-10-03T08:59:01.638Z,14.61999989
2022-10-03T09:00:05.413Z,14.63000011
2022-10-03T09:00:59.413Z,14.64000034
2022-10-03T09:02:00.372Z,14.64999962
2022-10-03T09:03:20.527Z,14.61999989
2022-10-03T09:03:31.549Z,14.61999989
2022-10-03T09:03:33.592Z,14.61999989
2022-10-03T09:03:55.243Z,14.64999962
2022-10-03T09:04:56.192Z,14.67000008
2022-10-03T09:05:52.029Z,14.68000031
2022-10-03T09:07:18.082Z,14.67000008
2022-10-03T09:07:18.763Z,14.67000008
2022-10-03T09:07:51.539Z,14.64999962
2022-10-03T09:08:50.376Z,14.65999985
2022-10-03T09:09:46.547Z,14.71000004
2022-10-03T09:10:47.167Z,14.72000027
2022-10-03T09:11:43.238Z,14.72000027
2022-10-03T09:12:46.481Z,14.68999958
2022-10-03T09:13:39.831Z,14.72000027
2022-10-03T09:14:40.559Z,14.72999954
2022-10-03T09:15:37.689Z,14.75
2022-10-03T09:16:40.233Z,14.77000046
2022-10-03T09:17:33.007Z,14.75
2022-10-03T09:19:32.151Z,14.77000046
2022-10-03T09:20:28.204Z,14.77000046
2022-10-03T09:21:28.620Z,14.77999973
2022-10-03T09:22:25.840Z,14.77999973
2022-10-03T09:23:25.457Z,14.78999996
2022-10-03T09:24:21.554Z,14.81999969
2022-10-03T09:25:24.919Z,14.84000015
2022-10-03T09:26:57.929Z,15.01000023
2022-10-03T09:29:10.517Z,15.39999962
2022-10-03T09:29:50.504Z,15.5
2022-10-03T09:30:48.425Z,15.52000046
2022-10-03T09:31:48.610Z,15.51000023
2022-10-03T09:32:43.926Z,15.43000031
2022-10-03T09:33:43.166Z,15.38000011
2022-10-03T09:34:38.453Z,15.35999966
2022-10-03T09:35:38.292Z,15.34000015
2022-10-03T09:36:33.590Z,15.32999992
2022-10-03T09:37:33.462Z,15.30000019
2022-10-03T09:38:28.696Z,15.30000019
2022-10-03T09:39:28.728Z,15.31999969
2022-10-03T09:40:27.224Z,15.35000038
2022-10-03T09:41:22.700Z,15.38000011
2022-10-03T09:42:20.871Z,15.40999985
2022-10-03T09:44:17.555Z,15.46000004
2022-10-03T09:45:18.174Z,15.51000023
2022-10-03T09:46:14.359Z,15.53999996
2022-10-03T09:47:15.137Z,15.57999992
2022-10-03T09:49:48.016Z,15.65999985
2022-10-03T09:50:29.364Z,15.72999954
2022-10-03T09:51:29.594Z,15.81000042
2022-10-03T09:52:31.553Z,15.85999966
2022-10-03T09:53:29.563Z,15.93000031
2022-10-03T09:54:31.305Z,16.01000023
2022-10-03T09:55:29.368Z,16.07999992
2022-10-03T09:56:31.282Z,16.12999916
2022-10-03T09:57:29.292Z,16.13999939
2022-10-03T09:59:30.600Z,16.22999954
2022-10-03T10:00:28.044Z,16.26000023
2022-10-03T10:01:33.198Z,16.30999947
2022-10-03T10:03:54.779Z,16.37000084
2022-10-03T10:04:54.290Z,16.43000031
2022-10-03T10:04:54.802Z,16.43000031
2022-10-03T10:04:59.524Z,16.43000031
2022-10-03T10:05:38.763Z,16.5
2022-10-03T10:06:36.067Z,16.55999947
2022-10-03T10:07:37.005Z,16.54000092
2022-10-03T10:08:33.341Z,16.5
2022-10-03T10:09:31.763Z,16.44000053
2022-10-03T10:10:33.528Z,16.38999939
2022-10-03T10:11:35.035Z,16.39999962
2022-10-03T10:12:33.103Z,16.43000031
2022-10-03T10:14:31.966Z,16.48999977
2022-10-03T10:15:34.389Z,16.54000092
2022-10-03T10:16:28.928Z,16.57999992
2022-10-03T10:17:30.948Z,16.59000015
2022-10-03T10:18:27.252Z,16.56999969
2022-10-03T10:19:27.218Z,16.52000046
2022-10-03T10:20:22.704Z,16.45999908
2022-10-03T10:21:23.185Z,16.39999962
2022-10-03T10:22:18.560Z,16.34000015
2022-10-03T10:24:14.813Z,16.23999977
2022-10-03T10:25:17.770Z,16.21999931
2022-10-03T10:26:11.103Z,16.20000076
2022-10-03T10:27:11.877Z,16.19000053
2022-10-03T10:28:08.417Z,16.17000008
2022-10-03T10:29:07.824Z,16.11000061
2022-10-03T10:30:03.165Z,16.10000038
2022-10-03T10:31:03.048Z,16.04999924
2022-10-03T10:32:00.429Z,16.02000046
2022-10-03T10:32:55.691Z,15.97000027
2022-10-03T10:33:55.187Z,15.93999958
2022-10-03T10:34:49.983Z,15.90999985
2022-10-03T10:35:52.300Z,15.88000011
2022-10-03T10:36:44.803Z,15.85000038
2022-10-03T10:38:39.820Z,15.81999969
2022-10-03T10:39:42.423Z,15.81000042
2022-10-03T10:40:36.698Z,15.81999969
2022-10-03T10:41:35.706Z,15.82999992
2022-10-03T10:42:30.848Z,15.77999973
2022-10-03T10:43:32.473Z,15.72999954
2022-10-03T10:44:25.138Z,15.72000027
2022-10-03T10:45:26.915Z,15.69999981
2022-10-03T10:46:19.562Z,15.69999981
2022-10-03T10:47:21.883Z,15.69999981
2022-10-03T10:49:14.104Z,15.71000004
2022-10-03T10:50:52.206Z,15.76000023
2022-10-03T10:51:31.840Z,15.78999996
2022-10-03T10:52:29.945Z,15.80000019
2022-10-03T10:54:25.140Z,15.77000046
2022-10-03T10:55:26.237Z,15.75
2022-10-03T10:56:22.352Z,15.69999981
2022-10-03T10:57:21.629Z,15.67000008
2022-10-03T10:59:17.119Z,15.63000011
2022-10-03T11:00:12.259Z,15.61999989
2022-10-03T11:01:15.103Z,15.60999966
2022-10-03T11:02:12.777Z,15.60999966
2022-10-03T11:03:08.196Z,15.60999966
2022-10-03T11:04:03.638Z,15.61999989
2022-10-03T11:05:04.088Z,15.61999989
2022-10-03T11:05:59.334Z,15.61999989
2022-10-03T11:06:57.783Z,15.63000011
2022-10-03T11:07:57.266Z,15.60999966
2022-10-03T11:08:52.595Z,15.60999966
2022-10-03T11:09:55.298Z,15.56000042
2022-10-03T11:10:48.132Z,15.55000019
2022-10-03T11:11:48.339Z,15.56999969
2022-10-03T11:12:43.790Z,15.56000042
2022-10-03T11:13:43.992Z,15.56999969
2022-10-03T11:14:39.412Z,15.57999992
2022-10-03T11:15:48.176Z,15.57999992
2022-10-03T11:16:39.320Z,15.60000038
2022-10-03T11:17:34.789Z,15.60999966
2022-10-03T11:18:37.407Z,15.64000034
2022-10-03T11:19:30.304Z,15.64999962
2022-10-03T11:20:29.211Z,15.68000031
2022-10-03T11:21:28.949Z,15.68999958
2022-10-03T11:22:24.374Z,15.67000008
2022-10-03T11:23:24.558Z,15.68000031
2022-10-03T11:24:19.892Z,15.67000008
2022-10-03T11:25:22.990Z,15.64999962
2022-10-03T11:26:16.616Z,15.64999962
2022-10-03T11:28:53.710Z,16.01000023
2022-10-03T11:29:53.468Z,16.20999908
2022-10-03T11:31:30.873Z,16.37999916
2022-10-03T11:33:44.190Z,16.64999962
2022-10-03T11:34:23.785Z,16.65999985
2022-10-03T11:35:23.204Z,16.61000061
2022-10-03T11:36:18.543Z,16.54000092
2022-10-03T11:37:16.940Z,16.46999931
2022-10-03T11:39:11.035Z,16.30999947
2022-10-03T11:40:05.357Z,16.27000046
2022-10-03T11:41:04.527Z,16.21999931
2022-10-03T11:41:58.768Z,16.19000053
2022-10-03T11:43:52.108Z,16.10000038
2022-10-03T11:44:53.245Z,16.05999947
2022-10-03T11:45:45.007Z,16.04000092
2022-10-03T11:46:42.360Z,16.01000023
2022-10-03T11:47:40.169Z,15.97000027
2022-10-03T11:48:34.548Z,15.96000004
2022-10-03T11:49:33.151Z,15.94999981
2022-10-03T11:50:27.416Z,15.94999981
2022-10-03T11:51:28.652Z,15.94999981
2022-10-03T11:52:20.157Z,15.93999958
2022-10-03T11:53:16.460Z,15.93999958
2022-10-03T11:54:30.708Z,15.93000031
2022-10-03T11:54:31.096Z,15.93000031
2022-10-03T11:54:32.670Z,15.93000031
2022-10-03T11:55:12.608Z,15.93999958
2022-10-03T11:56:06.843Z,15.97999954
2022-10-03T11:57:05.700Z,15.98999977
2022-10-03T11:58:58.816Z,15.98999977
2022-10-03T11:59:53.133Z,15.98999977
2022-10-03T12:00:49.781Z,15.97999954
2022-10-03T12:01:51.407Z,15.97000027
2022-10-03T12:02:42.227Z,15.97000027
2022-10-03T12:03:43.594Z,15.97999954
2022-10-03T12:04:36.078Z,15.98999977
2022-10-03T12:05:37.186Z,15.98999977
2022-10-03T12:06:29.395Z,16
2022-10-03T12:07:29.966Z,16
2022-10-03T12:08:21.685Z,16
2022-10-03T12:09:22.728Z,16
2022-10-03T12:11:00.462Z,16.04000092
2022-10-03T12:11:40.565Z,16.09000015
2022-10-03T12:12:40.349Z,16.09000015
2022-10-03T12:14:35.623Z,16.06999969